NGN1 EDDL-EDDN
Flight info
| Callsign | NGN1 |
|---|---|
| Flight time | 0h 51m |
| Altitude | 23000 |
| Route | KUMIK4H KUMIK L603 DINKU N869 LETKU LETKU1V |
| Aircraft | C25C/M-SDE2E3FGHRWXY/LB1 |
Departure
| Time | 2026-05-04 20:20 |
|---|---|
| Airport | Düsseldorf Airport (EDDL) |
Arrival
| Time | 2026-05-04 21:12 |
|---|---|
| Airport | Nuremberg Airport (EDDN) |
| Time | Latitude | Longitude | Altitude | Speed | Heading |
|---|---|---|---|---|---|
| 2026-05-04 19:54 | 51.28752 | 6.77598 | 118 ft | 0 kts | 323° |
| 2026-05-04 20:05 | 51.28747 | 6.77604 | 118 ft | 3 kts | 326° |
| 2026-05-04 20:05 | 51.28731 | 6.77617 | 119 ft | 4 kts | 353° |
| 2026-05-04 20:05 | 51.28712 | 6.77616 | 120 ft | 3 kts | 26° |
| 2026-05-04 20:06 | 51.28703 | 6.77608 | 121 ft | 2 kts | 32° |
| 2026-05-04 20:06 | 51.28702 | 6.77607 | 121 ft | 0 kts | 32° |
| 2026-05-04 20:09 | 51.28728 | 6.77649 | 120 ft | 12 kts | 47° |
| 2026-05-04 20:09 | 51.28766 | 6.77716 | 118 ft | 9 kts | 51° |
| 2026-05-04 20:09 | 51.28794 | 6.77771 | 119 ft | 4 kts | 38° |
| 2026-05-04 20:10 | 51.28885 | 6.77719 | 121 ft | 15 kts | 325° |
| 2026-05-04 20:10 | 51.28956 | 6.77751 | 125 ft | 10 kts | 51° |
| 2026-05-04 20:10 | 51.28991 | 6.77825 | 124 ft | 6 kts | 53° |
| 2026-05-04 20:10 | 51.29057 | 6.77966 | 126 ft | 26 kts | 53° |
| 2026-05-04 20:11 | 51.29173 | 6.78210 | 128 ft | 25 kts | 53° |
| 2026-05-04 20:11 | 51.29289 | 6.78455 | 127 ft | 27 kts | 53° |
| 2026-05-04 20:11 | 51.29380 | 6.78581 | 124 ft | 0 kts | 1° |
| 2026-05-04 20:12 | 51.29417 | 6.78572 | 123 ft | 7 kts | 354° |
| 2026-05-04 20:12 | 51.29449 | 6.78567 | 126 ft | 0 kts | 355° |
| 2026-05-04 20:17 | 51.29481 | 6.78561 | 124 ft | 11 kts | 346° |
| 2026-05-04 20:17 | 51.29517 | 6.78484 | 126 ft | 8 kts | 280° |
| 2026-05-04 20:17 | 51.29494 | 6.78416 | 126 ft | 6 kts | 233° |
| 2026-05-04 20:17 | 51.29492 | 6.78411 | 126 ft | 0 kts | 233° |
| 2026-05-04 20:20 | 51.29478 | 6.78380 | 126 ft | 30 kts | 232° |
| 2026-05-04 20:20 | 51.29099 | 6.77614 | 264 ft | 135 kts | 231° |
| 2026-05-04 20:20 | 51.28444 | 6.76152 | 982 ft | 172 kts | 233° |
| 2026-05-04 20:20 | 51.27707 | 6.74496 | 1784 ft | 200 kts | 231° |
| 2026-05-04 20:21 | 51.26881 | 6.72825 | 2946 ft | 192 kts | 231° |
| 2026-05-04 20:21 | 51.26083 | 6.71116 | 4433 ft | 198 kts | 231° |
| 2026-05-04 20:21 | 51.24223 | 6.67147 | 4989 ft | 257 kts | 232° |
| 2026-05-04 20:22 | 51.23058 | 6.64971 | 6280 ft | 250 kts | 215° |
| 2026-05-04 20:22 | 51.21496 | 6.63806 | 8137 ft | 255 kts | 198° |
| 2026-05-04 20:22 | 51.19694 | 6.63715 | 9186 ft | 267 kts | 170° |
| 2026-05-04 20:22 | 51.17838 | 6.64069 | 10378 ft | 271 kts | 176° |
| 2026-05-04 20:23 | 51.15960 | 6.64470 | 11506 ft | 276 kts | 161° |
| 2026-05-04 20:23 | 51.14359 | 6.66170 | 12673 ft | 280 kts | 140° |
| 2026-05-04 20:23 | 51.13304 | 6.68820 | 13813 ft | 293 kts | 110° |
| 2026-05-04 20:23 | 51.13088 | 6.72100 | 14764 ft | 304 kts | 91° |
| 2026-05-04 20:24 | 51.13213 | 6.75481 | 15737 ft | 309 kts | 88° |
| 2026-05-04 20:24 | 51.13414 | 6.78884 | 16685 ft | 314 kts | 88° |
| 2026-05-04 20:24 | 51.13556 | 6.82417 | 17683 ft | 318 kts | 90° |
| 2026-05-04 20:24 | 51.13674 | 6.85965 | 18624 ft | 323 kts | 90° |
| 2026-05-04 20:25 | 51.13794 | 6.89511 | 19488 ft | 327 kts | 90° |
| 2026-05-04 20:25 | 51.13938 | 6.93149 | 20380 ft | 332 kts | 89° |
| 2026-05-04 20:25 | 51.14071 | 6.96839 | 21276 ft | 337 kts | 90° |
| 2026-05-04 20:25 | 51.14208 | 7.00588 | 22179 ft | 342 kts | 90° |
| 2026-05-04 20:26 | 51.14340 | 7.04419 | 22953 ft | 354 kts | 90° |
| 2026-05-04 20:26 | 51.14479 | 7.08498 | 22981 ft | 384 kts | 90° |
| 2026-05-04 20:26 | 51.14641 | 7.12890 | 22988 ft | 410 kts | 89° |
| 2026-05-04 20:26 | 51.14803 | 7.17553 | 22996 ft | 431 kts | 89° |
| 2026-05-04 20:27 | 51.14965 | 7.22410 | 22996 ft | 438 kts | 89° |
| 2026-05-04 20:27 | 51.15136 | 7.27079 | 22998 ft | 408 kts | 89° |
| 2026-05-04 20:27 | 51.15283 | 7.31518 | 22999 ft | 395 kts | 90° |
| 2026-05-04 20:27 | 51.15421 | 7.35834 | 22996 ft | 387 kts | 89° |
| 2026-05-04 20:28 | 51.15560 | 7.40071 | 22983 ft | 379 kts | 90° |
| 2026-05-04 20:28 | 51.15694 | 7.44238 | 22982 ft | 374 kts | 90° |
| 2026-05-04 20:28 | 51.15828 | 7.48342 | 22984 ft | 369 kts | 90° |
| 2026-05-04 20:28 | 51.15956 | 7.52408 | 22985 ft | 364 kts | 90° |
| 2026-05-04 20:29 | 51.16072 | 7.56385 | 22984 ft | 354 kts | 91° |
| 2026-05-04 20:29 | 51.16192 | 7.60289 | 22985 ft | 363 kts | 89° |
| 2026-05-04 20:29 | 51.16113 | 7.64485 | 22988 ft | 394 kts | 105° |
| 2026-05-04 20:29 | 51.14960 | 7.68540 | 22993 ft | 408 kts | 127° |
| 2026-05-04 20:30 | 51.13002 | 7.71748 | 22997 ft | 406 kts | 144° |
| 2026-05-04 20:30 | 51.10765 | 7.74461 | 23007 ft | 413 kts | 147° |
| 2026-05-04 20:30 | 51.08385 | 7.77198 | 23008 ft | 416 kts | 147° |
| 2026-05-04 20:30 | 51.06107 | 7.79979 | 23000 ft | 409 kts | 144° |
| 2026-05-04 20:31 | 51.03921 | 7.82732 | 23005 ft | 403 kts | 145° |
| 2026-05-04 20:31 | 51.01714 | 7.85438 | 23003 ft | 399 kts | 146° |
| 2026-05-04 20:31 | 50.99515 | 7.88085 | 23004 ft | 395 kts | 146° |
| 2026-05-04 20:31 | 50.97339 | 7.90728 | 23003 ft | 393 kts | 145° |
| 2026-05-04 20:32 | 50.95181 | 7.93364 | 22998 ft | 391 kts | 146° |
| 2026-05-04 20:32 | 50.93029 | 7.95988 | 22997 ft | 391 kts | 146° |
| 2026-05-04 20:32 | 50.90845 | 7.98628 | 22998 ft | 399 kts | 146° |
| 2026-05-04 20:32 | 50.88624 | 8.01319 | 22985 ft | 405 kts | 146° |
| 2026-05-04 20:33 | 50.86372 | 8.04048 | 22990 ft | 409 kts | 146° |
| 2026-05-04 20:33 | 50.84132 | 8.06846 | 22989 ft | 413 kts | 141° |
| 2026-05-04 20:33 | 50.82353 | 8.10467 | 22989 ft | 421 kts | 126° |
| 2026-05-04 20:33 | 50.80704 | 8.14301 | 22992 ft | 422 kts | 128° |
| 2026-05-04 20:34 | 50.79069 | 8.18167 | 22994 ft | 424 kts | 126° |
| 2026-05-04 20:34 | 50.77456 | 8.22072 | 22999 ft | 425 kts | 127° |
| 2026-05-04 20:34 | 50.75815 | 8.25960 | 23001 ft | 425 kts | 127° |
| 2026-05-04 20:34 | 50.74155 | 8.29837 | 23000 ft | 426 kts | 127° |
| 2026-05-04 20:35 | 50.72503 | 8.33727 | 23001 ft | 427 kts | 127° |
| 2026-05-04 20:35 | 50.70870 | 8.37578 | 22998 ft | 427 kts | 128° |
| 2026-05-04 20:35 | 50.68877 | 8.40984 | 22980 ft | 420 kts | 145° |
| 2026-05-04 20:35 | 50.66437 | 8.43458 | 22986 ft | 416 kts | 154° |
| 2026-05-04 20:36 | 50.63901 | 8.45638 | 22981 ft | 415 kts | 155° |
| 2026-05-04 20:36 | 50.61331 | 8.47701 | 22984 ft | 415 kts | 156° |
| 2026-05-04 20:36 | 50.58775 | 8.49837 | 22985 ft | 415 kts | 154° |
| 2026-05-04 20:36 | 50.56270 | 8.51990 | 22974 ft | 406 kts | 155° |
| 2026-05-04 20:37 | 50.53811 | 8.54085 | 22974 ft | 398 kts | 155° |
| 2026-05-04 20:37 | 50.51383 | 8.56102 | 22973 ft | 393 kts | 156° |
| 2026-05-04 20:37 | 50.48998 | 8.58100 | 22971 ft | 396 kts | 155° |
| 2026-05-04 20:37 | 50.46540 | 8.60158 | 22971 ft | 404 kts | 155° |
| 2026-05-04 20:38 | 50.44006 | 8.62131 | 22964 ft | 409 kts | 163° |
| 2026-05-04 20:38 | 50.41247 | 8.63333 | 22972 ft | 411 kts | 167° |
| 2026-05-04 20:38 | 50.38569 | 8.64663 | 22971 ft | 399 kts | 165° |
| 2026-05-04 20:38 | 50.35946 | 8.65942 | 22974 ft | 392 kts | 166° |
| 2026-05-04 20:39 | 50.33330 | 8.67144 | 22970 ft | 392 kts | 167° |
| 2026-05-04 20:39 | 50.30704 | 8.68349 | 22973 ft | 393 kts | 167° |
| 2026-05-04 20:39 | 50.28083 | 8.69585 | 22975 ft | 394 kts | 166° |
| 2026-05-04 20:39 | 50.25456 | 8.70823 | 22974 ft | 395 kts | 166° |
| 2026-05-04 20:40 | 50.22822 | 8.72053 | 22979 ft | 395 kts | 166° |
| 2026-05-04 20:40 | 50.20154 | 8.73289 | 22982 ft | 405 kts | 167° |
| 2026-05-04 20:40 | 50.17427 | 8.74559 | 22987 ft | 413 kts | 166° |
| 2026-05-04 20:40 | 50.14749 | 8.75816 | 22990 ft | 389 kts | 166° |
| 2026-05-04 20:41 | 50.13058 | 8.76606 | 22989 ft | 376 kts | 166° |
| 2026-05-04 20:41 | 50.10609 | 8.77747 | 22980 ft | 360 kts | 167° |
| 2026-05-04 20:41 | 50.08244 | 8.78831 | 22977 ft | 349 kts | 167° |
| 2026-05-04 20:41 | 50.05951 | 8.79900 | 22978 ft | 339 kts | 167° |
| 2026-05-04 20:42 | 50.03713 | 8.80926 | 22978 ft | 332 kts | 167° |
| 2026-05-04 20:42 | 50.00814 | 8.82229 | 22979 ft | 324 kts | 167° |
| 2026-05-04 20:42 | 49.99396 | 8.83092 | 22976 ft | 324 kts | 158° |
| 2026-05-04 20:42 | 49.97418 | 8.84752 | 22976 ft | 321 kts | 156° |
| 2026-05-04 20:43 | 49.95427 | 8.86277 | 22977 ft | 316 kts | 160° |
| 2026-05-04 20:43 | 49.93419 | 8.87486 | 22971 ft | 313 kts | 161° |
| 2026-05-04 20:43 | 49.91556 | 8.89500 | 22963 ft | 346 kts | 142° |
| 2026-05-04 20:43 | 49.89771 | 8.92345 | 22976 ft | 379 kts | 137° |
| 2026-05-04 20:44 | 49.87976 | 8.95468 | 22979 ft | 405 kts | 134° |
| 2026-05-04 20:44 | 49.86145 | 8.98829 | 22980 ft | 407 kts | 134° |
| 2026-05-04 20:44 | 49.84291 | 9.02085 | 22977 ft | 401 kts | 136° |
| 2026-05-04 20:44 | 49.82421 | 9.05289 | 22979 ft | 403 kts | 136° |
| 2026-05-04 20:45 | 49.80550 | 9.08531 | 22972 ft | 403 kts | 135° |
| 2026-05-04 20:45 | 49.78695 | 9.11776 | 22976 ft | 402 kts | 135° |
| 2026-05-04 20:45 | 49.76839 | 9.15020 | 22979 ft | 401 kts | 135° |
| 2026-05-04 20:45 | 49.75081 | 9.18384 | 22968 ft | 410 kts | 124° |
| 2026-05-04 20:46 | 49.74027 | 9.22626 | 22968 ft | 435 kts | 109° |
| 2026-05-04 20:46 | 49.73233 | 9.27108 | 22982 ft | 419 kts | 107° |
| 2026-05-04 20:46 | 49.72625 | 9.31414 | 22980 ft | 404 kts | 105° |
| 2026-05-04 20:46 | 49.71994 | 9.35555 | 22973 ft | 390 kts | 108° |
| 2026-05-04 20:47 | 49.71260 | 9.39753 | 22974 ft | 419 kts | 108° |
| 2026-05-04 20:47 | 49.70505 | 9.44212 | 22985 ft | 431 kts | 107° |
| 2026-05-04 20:47 | 49.69799 | 9.48640 | 22989 ft | 430 kts | 108° |
| 2026-05-04 20:47 | 49.68635 | 9.52839 | 22973 ft | 426 kts | 127° |
| 2026-05-04 20:48 | 49.66873 | 9.56457 | 22980 ft | 420 kts | 131° |
| 2026-05-04 20:48 | 49.65047 | 9.59980 | 22981 ft | 419 kts | 133° |
| 2026-05-04 20:48 | 49.63184 | 9.63389 | 22984 ft | 413 kts | 133° |
| 2026-05-04 20:48 | 49.61373 | 9.66865 | 22986 ft | 415 kts | 131° |
| 2026-05-04 20:49 | 49.59587 | 9.70339 | 22994 ft | 412 kts | 132° |
| 2026-05-04 20:49 | 49.57799 | 9.73784 | 22993 ft | 415 kts | 132° |
| 2026-05-04 20:49 | 49.55954 | 9.77262 | 22997 ft | 419 kts | 133° |
| 2026-05-04 20:49 | 49.54130 | 9.80746 | 22996 ft | 419 kts | 132° |
| 2026-05-04 20:50 | 49.52301 | 9.84241 | 22994 ft | 419 kts | 131° |
| 2026-05-04 20:50 | 49.50467 | 9.87742 | 22995 ft | 421 kts | 132° |
| 2026-05-04 20:50 | 49.48618 | 9.91232 | 22989 ft | 421 kts | 132° |
| 2026-05-04 20:50 | 49.46776 | 9.94742 | 22990 ft | 422 kts | 131° |
| 2026-05-04 20:51 | 49.44932 | 9.98231 | 22990 ft | 414 kts | 132° |
| 2026-05-04 20:51 | 49.43137 | 10.01641 | 22988 ft | 411 kts | 132° |
| 2026-05-04 20:51 | 49.41306 | 10.05079 | 22988 ft | 411 kts | 132° |
| 2026-05-04 20:51 | 49.39569 | 10.08380 | 22983 ft | 393 kts | 132° |
| 2026-05-04 20:52 | 49.37847 | 10.11617 | 22985 ft | 393 kts | 132° |
| 2026-05-04 20:52 | 49.36102 | 10.14901 | 22983 ft | 401 kts | 132° |
| 2026-05-04 20:52 | 49.34324 | 10.18234 | 22983 ft | 406 kts | 132° |
| 2026-05-04 20:52 | 49.32505 | 10.21661 | 22987 ft | 418 kts | 132° |
| 2026-05-04 20:53 | 49.30715 | 10.25025 | 22987 ft | 394 kts | 132° |
| 2026-05-04 20:53 | 49.28994 | 10.28258 | 22984 ft | 393 kts | 132° |
| 2026-05-04 20:53 | 49.27240 | 10.31517 | 22966 ft | 400 kts | 133° |
| 2026-05-04 20:53 | 49.25523 | 10.34919 | 22973 ft | 409 kts | 124° |
| 2026-05-04 20:54 | 49.24605 | 10.39098 | 22974 ft | 423 kts | 99° |
| 2026-05-04 20:54 | 49.24809 | 10.43609 | 22969 ft | 428 kts | 77° |
| 2026-05-04 20:54 | 49.26102 | 10.47680 | 22970 ft | 425 kts | 54° |
| 2026-05-04 20:54 | 49.28255 | 10.50718 | 22973 ft | 421 kts | 34° |
| 2026-05-04 20:55 | 49.30742 | 10.52978 | 22795 ft | 421 kts | 28° |
| 2026-05-04 20:55 | 49.33333 | 10.55155 | 22262 ft | 429 kts | 28° |
| 2026-05-04 20:55 | 49.35874 | 10.57486 | 21728 ft | 418 kts | 32° |
| 2026-05-04 20:55 | 49.38238 | 10.60176 | 21178 ft | 428 kts | 41° |
| 2026-05-04 20:56 | 49.40294 | 10.63395 | 20623 ft | 413 kts | 49° |
| 2026-05-04 20:56 | 49.42122 | 10.66693 | 20058 ft | 398 kts | 53° |
| 2026-05-04 20:56 | 49.43279 | 10.70433 | 19515 ft | 383 kts | 79° |
| 2026-05-04 20:56 | 49.43454 | 10.74413 | 19038 ft | 368 kts | 98° |
| 2026-05-04 20:57 | 49.42985 | 10.78209 | 18581 ft | 357 kts | 107° |
| 2026-05-04 20:57 | 49.42362 | 10.81859 | 18136 ft | 350 kts | 107° |
| 2026-05-04 20:57 | 49.41847 | 10.85483 | 17635 ft | 346 kts | 102° |
| 2026-05-04 20:57 | 49.41563 | 10.89127 | 17155 ft | 342 kts | 98° |
| 2026-05-04 20:58 | 49.41274 | 10.92728 | 16695 ft | 338 kts | 101° |
| 2026-05-04 20:58 | 49.40913 | 10.96267 | 16231 ft | 334 kts | 102° |
| 2026-05-04 20:58 | 49.40554 | 10.99776 | 15797 ft | 331 kts | 102° |
| 2026-05-04 20:58 | 49.40209 | 11.03254 | 15362 ft | 328 kts | 101° |
| 2026-05-04 20:59 | 49.39881 | 11.06713 | 14937 ft | 326 kts | 101° |
| 2026-05-04 20:59 | 49.39536 | 11.10152 | 14511 ft | 324 kts | 101° |
| 2026-05-04 20:59 | 49.39204 | 11.13563 | 14100 ft | 322 kts | 101° |
| 2026-05-04 20:59 | 49.38859 | 11.16958 | 13685 ft | 321 kts | 102° |
| 2026-05-04 21:00 | 49.38530 | 11.20333 | 13210 ft | 320 kts | 102° |
| 2026-05-04 21:00 | 49.38185 | 11.23725 | 12663 ft | 322 kts | 101° |
| 2026-05-04 21:00 | 49.37853 | 11.27106 | 12221 ft | 319 kts | 101° |
| 2026-05-04 21:00 | 49.37520 | 11.30356 | 11811 ft | 304 kts | 102° |
| 2026-05-04 21:01 | 49.37201 | 11.33588 | 11407 ft | 304 kts | 102° |
| 2026-05-04 21:01 | 49.36873 | 11.36756 | 11013 ft | 306 kts | 102° |
| 2026-05-04 21:01 | 49.36543 | 11.40038 | 10597 ft | 308 kts | 102° |
| 2026-05-04 21:01 | 49.36211 | 11.43254 | 10198 ft | 310 kts | 102° |
| 2026-05-04 21:02 | 49.35885 | 11.46526 | 9786 ft | 311 kts | 102° |
| 2026-05-04 21:02 | 49.35545 | 11.49804 | 9356 ft | 308 kts | 102° |
| 2026-05-04 21:02 | 49.35224 | 11.52987 | 8953 ft | 298 kts | 102° |
| 2026-05-04 21:02 | 49.34923 | 11.56091 | 8506 ft | 292 kts | 96° |
| 2026-05-04 21:03 | 49.35397 | 11.59074 | 8092 ft | 290 kts | 60° |
| 2026-05-04 21:03 | 49.36849 | 11.61106 | 7723 ft | 282 kts | 27° |
| 2026-05-04 21:03 | 49.38721 | 11.61798 | 7388 ft | 272 kts | 6° |
| 2026-05-04 21:03 | 49.40579 | 11.62179 | 7040 ft | 266 kts | 9° |
| 2026-05-04 21:04 | 49.42395 | 11.62598 | 6698 ft | 262 kts | 8° |
| 2026-05-04 21:04 | 49.44189 | 11.62961 | 6392 ft | 257 kts | 2° |
| 2026-05-04 21:04 | 49.45759 | 11.62205 | 6170 ft | 228 kts | 321° |
| 2026-05-04 21:04 | 49.46537 | 11.60218 | 5986 ft | 215 kts | 279° |
| 2026-05-04 21:05 | 49.46569 | 11.58008 | 5825 ft | 206 kts | 263° |
| 2026-05-04 21:05 | 49.46339 | 11.55835 | 5580 ft | 207 kts | 258° |
| 2026-05-04 21:05 | 49.46085 | 11.53647 | 5319 ft | 208 kts | 259° |
| 2026-05-04 21:05 | 49.45907 | 11.51441 | 5183 ft | 204 kts | 262° |
| 2026-05-04 21:06 | 49.45815 | 11.49158 | 4676 ft | 237 kts | 270° |
| 2026-05-04 21:06 | 49.45956 | 11.46651 | 4798 ft | 228 kts | 276° |
| 2026-05-04 21:06 | 49.46135 | 11.44264 | 4217 ft | 226 kts | 277° |
| 2026-05-04 21:06 | 49.46378 | 11.41895 | 3863 ft | 214 kts | 285° |
| 2026-05-04 21:07 | 49.46692 | 11.39796 | 3965 ft | 192 kts | 281° |
| 2026-05-04 21:07 | 49.46907 | 11.37840 | 3994 ft | 182 kts | 281° |
| 2026-05-04 21:07 | 49.47096 | 11.35952 | 3990 ft | 169 kts | 279° |
| 2026-05-04 21:07 | 49.47263 | 11.34298 | 3987 ft | 144 kts | 279° |
| 2026-05-04 21:08 | 49.47401 | 11.32815 | 3985 ft | 137 kts | 280° |
| 2026-05-04 21:08 | 49.47549 | 11.31370 | 3993 ft | 137 kts | 279° |
| 2026-05-04 21:08 | 49.47689 | 11.29915 | 3987 ft | 137 kts | 281° |
| 2026-05-04 21:08 | 49.47835 | 11.28469 | 3993 ft | 137 kts | 279° |
| 2026-05-04 21:09 | 49.47981 | 11.26969 | 3737 ft | 154 kts | 281° |
| 2026-05-04 21:09 | 49.48147 | 11.25263 | 3156 ft | 165 kts | 281° |
| 2026-05-04 21:09 | 49.48321 | 11.23556 | 2895 ft | 155 kts | 281° |
| 2026-05-04 21:09 | 49.48474 | 11.21955 | 2706 ft | 151 kts | 282° |
| 2026-05-04 21:10 | 49.48634 | 11.20351 | 2503 ft | 153 kts | 281° |
| 2026-05-04 21:10 | 49.48797 | 11.18712 | 2331 ft | 155 kts | 282° |
| 2026-05-04 21:10 | 49.48969 | 11.17098 | 2110 ft | 150 kts | 283° |
| 2026-05-04 21:10 | 49.49133 | 11.15562 | 1969 ft | 142 kts | 281° |
| 2026-05-04 21:11 | 49.49281 | 11.14005 | 1735 ft | 150 kts | 281° |
| 2026-05-04 21:11 | 49.49430 | 11.12436 | 1537 ft | 149 kts | 277° |
| 2026-05-04 21:11 | 49.49549 | 11.10978 | 1286 ft | 124 kts | 277° |
| 2026-05-04 21:11 | 49.49669 | 11.09781 | 1096 ft | 106 kts | 280° |
| 2026-05-04 21:12 | 49.49777 | 11.08712 | 1029 ft | 93 kts | 278° |
| 2026-05-04 21:12 | 49.49917 | 11.08002 | 1025 ft | 23 kts | 330° |